Quick Links (Output Below):   Max & Min Temps   /   Climate Reports   /   Zone Forecasts
River Forecasts   /   Forestry Forecasts   /   Aviation Forecasts   /   Radars   /   Features

Terminal Aerodrome Forecast (Fayetteville)

Pick a Site:
Arkadelphia | El Dorado | Fayetteville | Fort Smith | Harrison | Highfill | Hot Springs | Jonesboro
Little Rock | Monticello | Mountain Home | Pine Bluff | Texarkana
 Forecast 

KFYV 220520Z 2206/2306 00000KT 5SM BR SKC
      TEMPO 2207/2211 2SM BR
     FM221200 00000KT P6SM SKC
     FM221500 15007KT P6SM SKC
     FM230000 13002KT P6SM FEW250=


 Latest METARs (Observations) 
How to Decode METARs
06Z KFYV 220553Z 00000KT 10SM CLR 09/09 A3013 RMK AO2 SLP197 T00940089
         10156 20089 402440083 51003
         
05Z KFYV 220453Z 00000KT 7SM CLR 10/10 A3013 RMK AO2 SLP196
         T01000100
         
04Z KFYV 220353Z 00000KT 6SM BR CLR 10/10 A3013 RMK AO2 SLP200
         T01000100
         
03Z KFYV 220253Z 00000KT 10SM CLR 11/11 A3012 RMK AO2 SLP199 T01110111
         51017
         
02Z KFYV 220153Z 00000KT 10SM CLR 13/12 A3011 RMK AO2 SLP194
         T01280122
         
01Z KFYV 220053Z 00000KT 10SM CLR 13/12 A3009 RMK AO2 SLP188
         T01330122
         
00Z KFYV 212353Z 00000KT 10SM CLR 16/13 A3007 RMK AO2 SLP181 T01560128
         10244 20156 55002
         
***** Today's Observations (Above) *****


23Z KFYV 212253Z 00000KT 10SM CLR 23/12 A3006 RMK AO2 SLP174
         T02280122
         
22Z KFYV 212153Z 00000KT 10SM CLR 24/12 A3007 RMK AO2 SLP175
         T02390117
         
21Z KFYV 212053Z VRB03KT 10SM CLR 24/11 A3008 RMK AO2 SLP178 T02390111
         56016
         
***** Yesterday's Observations (Above) *****


Back to Main Page
http://www.srh.noaa.gov/lzk/qfcst.php

USA.gov is the U.S. government's official web portal to all federal, state and local government web resources and services.